sensor_id;sensor_type;location;lat;lon;timestamp;temperature;humidity
64563;SHT31;50961;48.184;11.636;2022-07-29T00:00:09;20.94;66.69
64563;SHT31;50961;48.184;11.636;2022-07-29T00:02:35;21.01;66.31
64563;SHT31;50961;48.184;11.636;2022-07-29T00:05:01;21.02;66.55
64563;SHT31;50961;48.184;11.636;2022-07-29T00:07:26;20.97;66.99
64563;SHT31;50961;48.184;11.636;2022-07-29T00:09:52;20.87;67.36
64563;SHT31;50961;48.184;11.636;2022-07-29T00:12:20;20.88;67.50
64563;SHT31;50961;48.184;11.636;2022-07-29T00:14:46;20.79;67.83
64563;SHT31;50961;48.184;11.636;2022-07-29T00:17:12;20.84;67.93
64563;SHT31;50961;48.184;11.636;2022-07-29T00:19:37;20.80;68.07
64563;SHT31;50961;48.184;11.636;2022-07-29T00:22:02;20.76;68.08
64563;SHT31;50961;48.184;11.636;2022-07-29T00:24:28;20.74;68.46
64563;SHT31;50961;48.184;11.636;2022-07-29T00:26:53;20.79;68.66
64563;SHT31;50961;48.184;11.636;2022-07-29T00:29:18;20.77;68.78
64563;SHT31;50961;48.184;11.636;2022-07-29T00:31:44;20.76;69.23
64563;SHT31;50961;48.184;11.636;2022-07-29T00:34:09;20.76;69.64
64563;SHT31;50961;48.184;11.636;2022-07-29T00:36:55;20.69;69.89
64563;SHT31;50961;48.184;11.636;2022-07-29T00:39:21;20.63;70.80
64563;SHT31;50961;48.184;11.636;2022-07-29T00:41:46;20.54;71.42
64563;SHT31;50961;48.184;11.636;2022-07-29T00:44:11;20.52;71.62
64563;SHT31;50961;48.184;11.636;2022-07-29T00:46:37;20.53;71.66
64563;SHT31;50961;48.184;11.636;2022-07-29T00:49:02;20.53;71.61
64563;SHT31;50961;48.184;11.636;2022-07-29T00:51:28;20.59;71.47
64563;SHT31;50961;48.184;11.636;2022-07-29T00:53:53;20.56;71.59
64563;SHT31;50961;48.184;11.636;2022-07-29T00:56:19;20.53;71.68
64563;SHT31;50961;48.184;11.636;2022-07-29T00:58:46;20.43;71.77
64563;SHT31;50961;48.184;11.636;2022-07-29T01:01:12;20.56;71.30
64563;SHT31;50961;48.184;11.636;2022-07-29T01:03:37;20.54;70.62
64563;SHT31;50961;48.184;11.636;2022-07-29T01:06:03;20.56;70.65
64563;SHT31;50961;48.184;11.636;2022-07-29T01:08:31;20.63;70.60
64563;SHT31;50961;48.184;11.636;2022-07-29T01:10:57;20.60;70.94
64563;SHT31;50961;48.184;11.636;2022-07-29T01:13:22;20.64;70.92
64563;SHT31;50961;48.184;11.636;2022-07-29T01:15:55;20.67;71.18
64563;SHT31;50961;48.184;11.636;2022-07-29T01:18:34;20.73;70.91
64563;SHT31;50961;48.184;11.636;2022-07-29T01:23:47;20.74;71.43
64563;SHT31;50961;48.184;11.636;2022-07-29T01:26:28;20.77;70.91
64563;SHT31;50961;48.184;11.636;2022-07-29T01:34:11;20.88;71.30
64563;SHT31;50961;48.184;11.636;2022-07-29T01:36:56;20.95;70.91
64563;SHT31;50961;48.184;11.636;2022-07-29T01:39:31;20.95;70.67
64563;SHT31;50961;48.184;11.636;2022-07-29T01:44:57;20.94;71.02
64563;SHT31;50961;48.184;11.636;2022-07-29T01:47:26;20.97;71.31
64563;SHT31;50961;48.184;11.636;2022-07-29T01:49:58;21.00;71.67
64563;SHT31;50961;48.184;11.636;2022-07-29T01:52:34;20.98;71.30
64563;SHT31;50961;48.184;11.636;2022-07-29T01:55:06;21.02;71.37
64563;SHT31;50961;48.184;11.636;2022-07-29T01:57:33;21.05;71.16
64563;SHT31;50961;48.184;11.636;2022-07-29T02:00:01;21.10;70.95
64563;SHT31;50961;48.184;11.636;2022-07-29T02:02:27;21.08;71.44
64563;SHT31;50961;48.184;11.636;2022-07-29T02:04:54;21.10;71.30
64563;SHT31;50961;48.184;11.636;2022-07-29T02:07:23;21.11;71.19
64563;SHT31;50961;48.184;11.636;2022-07-29T02:09:50;21.08;71.37
64563;SHT31;50961;48.184;11.636;2022-07-29T02:12:19;21.08;71.75
64563;SHT31;50961;48.184;11.636;2022-07-29T02:14:48;21.02;71.56
64563;SHT31;50961;48.184;11.636;2022-07-29T02:17:29;20.97;71.41
64563;SHT31;50961;48.184;11.636;2022-07-29T02:20:03;20.95;72.03
64563;SHT31;50961;48.184;11.636;2022-07-29T02:22:30;20.94;72.54
64563;SHT31;50961;48.184;11.636;2022-07-29T02:24:58;20.97;72.58
64563;SHT31;50961;48.184;11.636;2022-07-29T02:27:24;20.95;72.53
64563;SHT31;50961;48.184;11.636;2022-07-29T02:29:53;20.94;72.53
64563;SHT31;50961;48.184;11.636;2022-07-29T02:32:21;20.93;72.65
64563;SHT31;50961;48.184;11.636;2022-07-29T02:34:48;20.93;72.34
64563;SHT31;50961;48.184;11.636;2022-07-29T02:37:16;20.81;72.52
64563;SHT31;50961;48.184;11.636;2022-07-29T02:39:43;20.81;72.94
64563;SHT31;50961;48.184;11.636;2022-07-29T02:42:13;20.67;73.22
64563;SHT31;50961;48.184;11.636;2022-07-29T02:44:39;20.66;73.35
64563;SHT31;50961;48.184;11.636;2022-07-29T02:47:21;20.67;73.56
64563;SHT31;50961;48.184;11.636;2022-07-29T02:50:00;20.62;73.51
64563;SHT31;50961;48.184;11.636;2022-07-29T02:52:36;20.66;73.43
64563;SHT31;50961;48.184;11.636;2022-07-29T02:55:15;20.66;73.60
64563;SHT31;50961;48.184;11.636;2022-07-29T02:57:44;20.64;73.86
64563;SHT31;50961;48.184;11.636;2022-07-29T03:00:12;20.66;73.52
64563;SHT31;50961;48.184;11.636;2022-07-29T03:02:42;20.66;73.17
64563;SHT31;50961;48.184;11.636;2022-07-29T03:05:14;20.62;73.91
64563;SHT31;50961;48.184;11.636;2022-07-29T03:07:42;20.60;73.61
64563;SHT31;50961;48.184;11.636;2022-07-29T03:10:09;20.53;73.92
64563;SHT31;50961;48.184;11.636;2022-07-29T03:12:35;20.52;74.33
64563;SHT31;50961;48.184;11.636;2022-07-29T03:15:01;20.52;74.54
64563;SHT31;50961;48.184;11.636;2022-07-29T03:17:27;20.49;74.21
64563;SHT31;50961;48.184;11.636;2022-07-29T03:19:53;20.50;74.10
64563;SHT31;50961;48.184;11.636;2022-07-29T03:22:19;20.49;74.13
64563;SHT31;50961;48.184;11.636;2022-07-29T03:24:44;20.47;74.58
64563;SHT31;50961;48.184;11.636;2022-07-29T03:27:10;20.40;74.78
64563;SHT31;50961;48.184;11.636;2022-07-29T03:29:35;20.39;74.66
64563;SHT31;50961;48.184;11.636;2022-07-29T03:32:03;20.32;75.25
64563;SHT31;50961;48.184;11.636;2022-07-29T03:34:29;20.28;75.05
64563;SHT31;50961;48.184;11.636;2022-07-29T03:36:54;20.16;75.37
64563;SHT31;50961;48.184;11.636;2022-07-29T03:39:22;20.24;75.56
64563;SHT31;50961;48.184;11.636;2022-07-29T03:41:49;20.22;75.53
64563;SHT31;50961;48.184;11.636;2022-07-29T03:44:17;20.12;75.83
64563;SHT31;50961;48.184;11.636;2022-07-29T03:46:45;20.06;76.26
64563;SHT31;50961;48.184;11.636;2022-07-29T03:49:11;20.11;75.71
64563;SHT31;50961;48.184;11.636;2022-07-29T03:51:39;20.09;76.26
64563;SHT31;50961;48.184;11.636;2022-07-29T03:54:05;20.06;76.00
64563;SHT31;50961;48.184;11.636;2022-07-29T03:56:32;20.04;76.18
64563;SHT31;50961;48.184;11.636;2022-07-29T03:59:01;20.05;75.67
64563;SHT31;50961;48.184;11.636;2022-07-29T04:01:27;19.97;75.94
64563;SHT31;50961;48.184;11.636;2022-07-29T04:03:53;19.92;76.37
64563;SHT31;50961;48.184;11.636;2022-07-29T04:06:18;19.97;76.46
64563;SHT31;50961;48.184;11.636;2022-07-29T04:08:44;19.94;76.55
64563;SHT31;50961;48.184;11.636;2022-07-29T04:11:09;19.99;76.30
64563;SHT31;50961;48.184;11.636;2022-07-29T04:13:35;19.97;76.28
64563;SHT31;50961;48.184;11.636;2022-07-29T04:16:00;19.94;76.46
64563;SHT31;50961;48.184;11.636;2022-07-29T04:18:26;19.92;76.73
64563;SHT31;50961;48.184;11.636;2022-07-29T04:20:51;19.92;76.67
64563;SHT31;50961;48.184;11.636;2022-07-29T04:23:17;19.97;76.33
64563;SHT31;50961;48.184;11.636;2022-07-29T04:25:43;19.98;76.79
64563;SHT31;50961;48.184;11.636;2022-07-29T04:28:09;19.94;77.10
64563;SHT31;50961;48.184;11.636;2022-07-29T04:30:36;19.98;76.56
64563;SHT31;50961;48.184;11.636;2022-07-29T04:33:04;19.97;76.70
64563;SHT31;50961;48.184;11.636;2022-07-29T04:35:30;20.02;76.55
64563;SHT31;50961;48.184;11.636;2022-07-29T04:37:58;19.99;76.36
64563;SHT31;50961;48.184;11.636;2022-07-29T04:40:23;20.09;76.09
64563;SHT31;50961;48.184;11.636;2022-07-29T04:42:49;20.11;75.61
64563;SHT31;50961;48.184;11.636;2022-07-29T04:45:14;20.11;75.52
64563;SHT31;50961;48.184;11.636;2022-07-29T04:47:39;20.15;75.64
64563;SHT31;50961;48.184;11.636;2022-07-29T04:50:05;20.18;74.73
64563;SHT31;50961;48.184;11.636;2022-07-29T04:52:32;20.26;74.33
64563;SHT31;50961;48.184;11.636;2022-07-29T04:54:57;20.30;74.58
64563;SHT31;50961;48.184;11.636;2022-07-29T04:57:23;20.35;74.66
64563;SHT31;50961;48.184;11.636;2022-07-29T04:59:48;20.47;73.42
64563;SHT31;50961;48.184;11.636;2022-07-29T05:02:14;20.54;72.64
64563;SHT31;50961;48.184;11.636;2022-07-29T05:04:39;20.63;73.51
64563;SHT31;50961;48.184;11.636;2022-07-29T05:07:05;20.59;72.61
64563;SHT31;50961;48.184;11.636;2022-07-29T05:09:30;20.74;72.66
64563;SHT31;50961;48.184;11.636;2022-07-29T05:11:57;20.77;71.95
64563;SHT31;50961;48.184;11.636;2022-07-29T05:14:22;20.84;71.83
64563;SHT31;50961;48.184;11.636;2022-07-29T05:16:48;20.90;71.58
64563;SHT31;50961;48.184;11.636;2022-07-29T05:19:16;20.90;71.61
64563;SHT31;50961;48.184;11.636;2022-07-29T05:21:41;20.95;71.35
64563;SHT31;50961;48.184;11.636;2022-07-29T05:24:07;21.07;70.75
64563;SHT31;50961;48.184;11.636;2022-07-29T05:26:33;21.11;70.48
64563;SHT31;50961;48.184;11.636;2022-07-29T05:28:58;21.10;70.03
64563;SHT31;50961;48.184;11.636;2022-07-29T05:31:23;21.04;71.10
64563;SHT31;50961;48.184;11.636;2022-07-29T05:33:49;21.10;70.36
64563;SHT31;50961;48.184;11.636;2022-07-29T05:36:14;21.12;71.70
64563;SHT31;50961;48.184;11.636;2022-07-29T05:38:39;21.15;70.62
64563;SHT31;50961;48.184;11.636;2022-07-29T05:41:05;21.22;70.45
64563;SHT31;50961;48.184;11.636;2022-07-29T05:43:30;21.29;69.70
64563;SHT31;50961;48.184;11.636;2022-07-29T05:45:56;21.34;69.36
64563;SHT31;50961;48.184;11.636;2022-07-29T05:48:22;21.38;68.83
64563;SHT31;50961;48.184;11.636;2022-07-29T05:50:47;21.39;69.59
64563;SHT31;50961;48.184;11.636;2022-07-29T05:53:13;21.41;70.02
64563;SHT31;50961;48.184;11.636;2022-07-29T05:55:38;21.38;69.43
64563;SHT31;50961;48.184;11.636;2022-07-29T05:58:03;21.45;68.99
64563;SHT31;50961;48.184;11.636;2022-07-29T06:00:29;21.56;69.00
64563;SHT31;50961;48.184;11.636;2022-07-29T06:02:55;21.55;68.53
64563;SHT31;50961;48.184;11.636;2022-07-29T06:05:20;21.63;68.83
64563;SHT31;50961;48.184;11.636;2022-07-29T06:07:46;21.67;68.92
64563;SHT31;50961;48.184;11.636;2022-07-29T06:10:11;21.73;69.05
64563;SHT31;50961;48.184;11.636;2022-07-29T06:12:36;21.87;67.99
64563;SHT31;50961;48.184;11.636;2022-07-29T06:15:02;21.93;66.38
64563;SHT31;50961;48.184;11.636;2022-07-29T06:17:27;21.97;66.06
64563;SHT31;50961;48.184;11.636;2022-07-29T06:19:53;22.04;67.90
64563;SHT31;50961;48.184;11.636;2022-07-29T06:22:18;22.08;69.06
64563;SHT31;50961;48.184;11.636;2022-07-29T06:24:44;22.18;68.58
64563;SHT31;50961;48.184;11.636;2022-07-29T06:27:10;22.27;68.13
64563;SHT31;50961;48.184;11.636;2022-07-29T06:29:36;22.30;68.27
64563;SHT31;50961;48.184;11.636;2022-07-29T06:32:01;22.38;67.70
64563;SHT31;50961;48.184;11.636;2022-07-29T06:34:27;22.42;67.32
64563;SHT31;50961;48.184;11.636;2022-07-29T06:36:53;22.45;67.28
64563;SHT31;50961;48.184;11.636;2022-07-29T06:39:18;22.44;66.05
64563;SHT31;50961;48.184;11.636;2022-07-29T06:41:47;22.52;64.80
64563;SHT31;50961;48.184;11.636;2022-07-29T06:44:14;22.44;64.12
64563;SHT31;50961;48.184;11.636;2022-07-29T06:46:39;22.55;64.54
64563;SHT31;50961;48.184;11.636;2022-07-29T06:49:05;22.71;64.78
64563;SHT31;50961;48.184;11.636;2022-07-29T06:51:30;22.69;64.23
64563;SHT31;50961;48.184;11.636;2022-07-29T06:53:56;22.79;64.55
64563;SHT31;50961;48.184;11.636;2022-07-29T06:56:22;22.92;64.65
64563;SHT31;50961;48.184;11.636;2022-07-29T06:58:48;23.00;63.75
64563;SHT31;50961;48.184;11.636;2022-07-29T07:01:13;22.96;64.54
64563;SHT31;50961;48.184;11.636;2022-07-29T07:03:38;23.09;64.07
64563;SHT31;50961;48.184;11.636;2022-07-29T07:06:04;23.20;64.51
64563;SHT31;50961;48.184;11.636;2022-07-29T07:08:29;23.27;64.68
64563;SHT31;50961;48.184;11.636;2022-07-29T07:10:55;23.36;63.04
64563;SHT31;50961;48.184;11.636;2022-07-29T07:13:22;23.38;61.89
64563;SHT31;50961;48.184;11.636;2022-07-29T07:15:48;23.33;61.53
64563;SHT31;50961;48.184;11.636;2022-07-29T07:18:14;23.31;61.73
64563;SHT31;50961;48.184;11.636;2022-07-29T07:20:40;23.33;61.60
64563;SHT31;50961;48.184;11.636;2022-07-29T07:23:05;23.33;61.73
64563;SHT31;50961;48.184;11.636;2022-07-29T07:25:31;23.13;61.86
64563;SHT31;50961;48.184;11.636;2022-07-29T07:27:57;23.37;62.77
64563;SHT31;50961;48.184;11.636;2022-07-29T07:30:22;23.38;61.49
64563;SHT31;50961;48.184;11.636;2022-07-29T07:32:48;23.27;61.84
64563;SHT31;50961;48.184;11.636;2022-07-29T07:35:13;23.48;62.46
64563;SHT31;50961;48.184;11.636;2022-07-29T07:37:39;23.55;61.46
64563;SHT31;50961;48.184;11.636;2022-07-29T07:40:06;23.58;60.54
64563;SHT31;50961;48.184;11.636;2022-07-29T07:42:32;23.74;61.30
64563;SHT31;50961;48.184;11.636;2022-07-29T07:44:57;23.85;60.03
64563;SHT31;50961;48.184;11.636;2022-07-29T07:47:22;24.05;60.15
64563;SHT31;50961;48.184;11.636;2022-07-29T07:49:50;24.20;60.91
64563;SHT31;50961;48.184;11.636;2022-07-29T07:52:17;24.20;58.75
64563;SHT31;50961;48.184;11.636;2022-07-29T07:54:43;24.30;59.04
64563;SHT31;50961;48.184;11.636;2022-07-29T07:57:10;24.41;55.85
64563;SHT31;50961;48.184;11.636;2022-07-29T07:59:35;24.59;54.82
64563;SHT31;50961;48.184;11.636;2022-07-29T08:02:01;24.77;54.84
64563;SHT31;50961;48.184;11.636;2022-07-29T08:04:26;24.98;56.31
64563;SHT31;50961;48.184;11.636;2022-07-29T08:06:52;25.08;54.60
64563;SHT31;50961;48.184;11.636;2022-07-29T08:09:20;25.28;54.80
64563;SHT31;50961;48.184;11.636;2022-07-29T08:11:45;25.42;53.16
64563;SHT31;50961;48.184;11.636;2022-07-29T08:14:10;25.39;52.52
64563;SHT31;50961;48.184;11.636;2022-07-29T08:16:36;25.65;53.44
64563;SHT31;50961;48.184;11.636;2022-07-29T08:19:01;25.62;52.46
64563;SHT31;50961;48.184;11.636;2022-07-29T08:21:27;25.62;52.01
64563;SHT31;50961;48.184;11.636;2022-07-29T08:23:52;25.63;52.54
64563;SHT31;50961;48.184;11.636;2022-07-29T08:26:20;25.71;52.56
64563;SHT31;50961;48.184;11.636;2022-07-29T08:28:47;25.81;52.92
64563;SHT31;50961;48.184;11.636;2022-07-29T08:31:16;25.91;53.20
64563;SHT31;50961;48.184;11.636;2022-07-29T08:33:42;26.14;53.25
64563;SHT31;50961;48.184;11.636;2022-07-29T08:36:08;26.20;52.88
64563;SHT31;50961;48.184;11.636;2022-07-29T08:38:34;26.20;52.33
64563;SHT31;50961;48.184;11.636;2022-07-29T08:41:02;26.20;50.61
64563;SHT31;50961;48.184;11.636;2022-07-29T08:43:28;26.26;50.58
64563;SHT31;50961;48.184;11.636;2022-07-29T08:45:54;26.43;51.15
64563;SHT31;50961;48.184;11.636;2022-07-29T08:48:21;26.57;50.50
64563;SHT31;50961;48.184;11.636;2022-07-29T08:50:50;26.60;50.76
64563;SHT31;50961;48.184;11.636;2022-07-29T08:53:18;26.66;49.80
64563;SHT31;50961;48.184;11.636;2022-07-29T08:55:45;26.75;50.19
64563;SHT31;50961;48.184;11.636;2022-07-29T08:58:11;26.76;49.00
64563;SHT31;50961;48.184;11.636;2022-07-29T09:00:45;26.83;50.07
64563;SHT31;50961;48.184;11.636;2022-07-29T09:03:15;26.89;50.20
64563;SHT31;50961;48.184;11.636;2022-07-29T09:05:41;26.84;50.45
64563;SHT31;50961;48.184;11.636;2022-07-29T09:08:08;26.79;51.29
64563;SHT31;50961;48.184;11.636;2022-07-29T09:10:35;26.91;51.45
64563;SHT31;50961;48.184;11.636;2022-07-29T09:13:01;26.93;50.94
64563;SHT31;50961;48.184;11.636;2022-07-29T09:15:26;27.04;51.13
64563;SHT31;50961;48.184;11.636;2022-07-29T09:17:52;27.01;51.22
64563;SHT31;50961;48.184;11.636;2022-07-29T09:20:21;26.94;51.17
64563;SHT31;50961;48.184;11.636;2022-07-29T09:22:48;27.03;51.05
64563;SHT31;50961;48.184;11.636;2022-07-29T09:25:38;27.07;51.87
64563;SHT31;50961;48.184;11.636;2022-07-29T09:30:35;27.47;51.23
64563;SHT31;50961;48.184;11.636;2022-07-29T09:33:03;27.56;50.50
64563;SHT31;50961;48.184;11.636;2022-07-29T09:35:31;28.04;51.05
64563;SHT31;50961;48.184;11.636;2022-07-29T09:37:57;28.03;49.14
64563;SHT31;50961;48.184;11.636;2022-07-29T09:40:27;27.95;49.87
64563;SHT31;50961;48.184;11.636;2022-07-29T09:42:53;28.06;49.55
64563;SHT31;50961;48.184;11.636;2022-07-29T09:45:30;28.09;49.91
64563;SHT31;50961;48.184;11.636;2022-07-29T09:47:56;27.95;49.90
64563;SHT31;50961;48.184;11.636;2022-07-29T09:50:35;27.72;50.34
64563;SHT31;50961;48.184;11.636;2022-07-29T09:53:01;27.59;50.74
64563;SHT31;50961;48.184;11.636;2022-07-29T09:55:26;27.37;50.91
64563;SHT31;50961;48.184;11.636;2022-07-29T09:57:52;27.34;51.38
64563;SHT31;50961;48.184;11.636;2022-07-29T10:00:19;27.33;50.98
64563;SHT31;50961;48.184;11.636;2022-07-29T10:02:47;27.23;51.73
64563;SHT31;50961;48.184;11.636;2022-07-29T10:07:54;27.20;52.97
64563;SHT31;50961;48.184;11.636;2022-07-29T10:10:21;27.14;52.00
64563;SHT31;50961;48.184;11.636;2022-07-29T10:12:58;27.18;51.87
64563;SHT31;50961;48.184;11.636;2022-07-29T10:15:26;27.26;52.17
64563;SHT31;50961;48.184;11.636;2022-07-29T10:17:53;26.93;52.29
64563;SHT31;50961;48.184;11.636;2022-07-29T10:20:20;26.91;52.17
64563;SHT31;50961;48.184;11.636;2022-07-29T10:22:47;26.80;52.31
64563;SHT31;50961;48.184;11.636;2022-07-29T10:25:14;26.75;52.39
64563;SHT31;50961;48.184;11.636;2022-07-29T10:27:40;26.57;52.82
64563;SHT31;50961;48.184;11.636;2022-07-29T10:30:06;26.84;53.36
64563;SHT31;50961;48.184;11.636;2022-07-29T10:32:51;27.23;52.28
64563;SHT31;50961;48.184;11.636;2022-07-29T10:35:59;27.62;52.90
64563;SHT31;50961;48.184;11.636;2022-07-29T10:38:58;27.76;51.80
64563;SHT31;50961;48.184;11.636;2022-07-29T10:44:05;28.20;51.53
64563;SHT31;50961;48.184;11.636;2022-07-29T10:46:36;28.00;49.98
64563;SHT31;50961;48.184;11.636;2022-07-29T10:49:11;27.90;49.61
64563;SHT31;50961;48.184;11.636;2022-07-29T10:59:42;27.79;50.63
64563;SHT31;50961;48.184;11.636;2022-07-29T11:05:06;28.55;49.02
64563;SHT31;50961;48.184;11.636;2022-07-29T11:07:34;28.67;48.19
64563;SHT31;50961;48.184;11.636;2022-07-29T11:15:07;28.96;48.15
64563;SHT31;50961;48.184;11.636;2022-07-29T11:18:06;29.40;47.21
64563;SHT31;50961;48.184;11.636;2022-07-29T11:20:46;29.57;46.24
64563;SHT31;50961;48.184;11.636;2022-07-29T11:26:17;30.30;46.79
64563;SHT31;50961;48.184;11.636;2022-07-29T11:29:04;30.42;45.82
64563;SHT31;50961;48.184;11.636;2022-07-29T11:31:37;30.56;45.64
64563;SHT31;50961;48.184;11.636;2022-07-29T11:34:18;30.49;43.43
64563;SHT31;50961;48.184;11.636;2022-07-29T11:42:42;30.16;42.25
64563;SHT31;50961;48.184;11.636;2022-07-29T11:45:14;30.13;42.61
64563;SHT31;50961;48.184;11.636;2022-07-29T11:50:18;29.81;42.30
64563;SHT31;50961;48.184;11.636;2022-07-29T11:52:51;29.98;42.21
64563;SHT31;50961;48.184;11.636;2022-07-29T11:55:19;29.92;42.67
64563;SHT31;50961;48.184;11.636;2022-07-29T11:57:49;30.01;42.12
64563;SHT31;50961;48.184;11.636;2022-07-29T12:00:23;29.82;42.07
64563;SHT31;50961;48.184;11.636;2022-07-29T12:02:49;29.60;41.59
64563;SHT31;50961;48.184;11.636;2022-07-29T12:05:14;29.64;43.12
64563;SHT31;50961;48.184;11.636;2022-07-29T12:07:41;29.85;44.11
64563;SHT31;50961;48.184;11.636;2022-07-29T12:10:07;29.78;43.91
64563;SHT31;50961;48.184;11.636;2022-07-29T12:12:33;29.63;43.13
64563;SHT31;50961;48.184;11.636;2022-07-29T12:15:20;29.67;43.15
64563;SHT31;50961;48.184;11.636;2022-07-29T12:17:47;29.44;42.75
64563;SHT31;50961;48.184;11.636;2022-07-29T12:20:13;29.44;42.44
64563;SHT31;50961;48.184;11.636;2022-07-29T12:22:40;29.29;43.22
64563;SHT31;50961;48.184;11.636;2022-07-29T12:25:07;29.08;43.20
64563;SHT31;50961;48.184;11.636;2022-07-29T12:27:33;29.29;43.56
64563;SHT31;50961;48.184;11.636;2022-07-29T12:30:06;29.02;44.13
64563;SHT31;50961;48.184;11.636;2022-07-29T12:32:37;29.06;44.17
64563;SHT31;50961;48.184;11.636;2022-07-29T12:35:07;29.06;44.67
64563;SHT31;50961;48.184;11.636;2022-07-29T12:37:35;29.08;44.49
64563;SHT31;50961;48.184;11.636;2022-07-29T12:40:03;29.19;45.18
64563;SHT31;50961;48.184;11.636;2022-07-29T12:42:28;29.10;45.06
64563;SHT31;50961;48.184;11.636;2022-07-29T12:44:54;29.26;45.26
64563;SHT31;50961;48.184;11.636;2022-07-29T12:47:20;29.37;45.15
64563;SHT31;50961;48.184;11.636;2022-07-29T12:49:47;29.30;43.67
64563;SHT31;50961;48.184;11.636;2022-07-29T12:52:33;29.29;44.79
64563;SHT31;50961;48.184;11.636;2022-07-29T12:54:59;29.20;45.06
64563;SHT31;50961;48.184;11.636;2022-07-29T12:57:25;29.15;45.32
64563;SHT31;50961;48.184;11.636;2022-07-29T13:00:09;29.13;45.06
64563;SHT31;50961;48.184;11.636;2022-07-29T13:02:36;28.89;44.99
64563;SHT31;50961;48.184;11.636;2022-07-29T13:05:04;28.98;45.84
64563;SHT31;50961;48.184;11.636;2022-07-29T13:07:32;28.83;46.28
64563;SHT31;50961;48.184;11.636;2022-07-29T13:10:14;28.78;45.29
64563;SHT31;50961;48.184;11.636;2022-07-29T13:15:31;28.54;45.36
64563;SHT31;50961;48.184;11.636;2022-07-29T13:17:57;28.40;46.04
64563;SHT31;50961;48.184;11.636;2022-07-29T13:20:27;28.20;46.10
64563;SHT31;50961;48.184;11.636;2022-07-29T13:22:59;28.20;45.97
64563;SHT31;50961;48.184;11.636;2022-07-29T13:25:30;28.09;45.17
64563;SHT31;50961;48.184;11.636;2022-07-29T13:27:57;28.00;45.20
64563;SHT31;50961;48.184;11.636;2022-07-29T13:30:23;27.90;45.15
64563;SHT31;50961;48.184;11.636;2022-07-29T13:32:49;27.86;45.48
64563;SHT31;50961;48.184;11.636;2022-07-29T13:35:15;27.75;45.61
64563;SHT31;50961;48.184;11.636;2022-07-29T13:37:40;27.66;45.96
64563;SHT31;50961;48.184;11.636;2022-07-29T13:40:07;27.63;46.40
64563;SHT31;50961;48.184;11.636;2022-07-29T13:42:33;27.51;46.70
64563;SHT31;50961;48.184;11.636;2022-07-29T13:45:00;27.48;47.55
64563;SHT31;50961;48.184;11.636;2022-07-29T13:47:26;27.35;47.53
64563;SHT31;50961;48.184;11.636;2022-07-29T13:49:52;27.38;47.89
64563;SHT31;50961;48.184;11.636;2022-07-29T13:52:18;27.30;47.17
64563;SHT31;50961;48.184;11.636;2022-07-29T13:54:44;27.28;47.26
64563;SHT31;50961;48.184;11.636;2022-07-29T13:57:10;27.30;47.28
64563;SHT31;50961;48.184;11.636;2022-07-29T13:59:36;27.26;47.89
64563;SHT31;50961;48.184;11.636;2022-07-29T14:02:02;27.18;48.09
64563;SHT31;50961;48.184;11.636;2022-07-29T14:04:28;27.27;48.38
64563;SHT31;50961;48.184;11.636;2022-07-29T14:06:53;27.28;48.32
64563;SHT31;50961;48.184;11.636;2022-07-29T14:09:19;27.20;49.12
64563;SHT31;50961;48.184;11.636;2022-07-29T14:11:44;27.30;49.44
64563;SHT31;50961;48.184;11.636;2022-07-29T14:14:11;27.20;49.66
64563;SHT31;50961;48.184;11.636;2022-07-29T14:16:37;27.27;49.61
64563;SHT31;50961;48.184;11.636;2022-07-29T14:19:02;27.21;48.08
64563;SHT31;50961;48.184;11.636;2022-07-29T14:21:28;27.24;48.08
64563;SHT31;50961;48.184;11.636;2022-07-29T14:23:53;27.27;48.57
64563;SHT31;50961;48.184;11.636;2022-07-29T14:26:20;27.31;49.02
64563;SHT31;50961;48.184;11.636;2022-07-29T14:28:46;27.44;49.73
64563;SHT31;50961;48.184;11.636;2022-07-29T14:31:11;27.44;49.34
64563;SHT31;50961;48.184;11.636;2022-07-29T14:33:37;27.34;46.85
64563;SHT31;50961;48.184;11.636;2022-07-29T14:36:03;27.39;47.75
64563;SHT31;50961;48.184;11.636;2022-07-29T14:38:28;27.31;47.81
64563;SHT31;50961;48.184;11.636;2022-07-29T14:40:54;27.28;47.44
64563;SHT31;50961;48.184;11.636;2022-07-29T14:43:19;27.15;47.51
64563;SHT31;50961;48.184;11.636;2022-07-29T14:45:44;27.15;48.57
64563;SHT31;50961;48.184;11.636;2022-07-29T14:48:10;27.17;48.23
64563;SHT31;50961;48.184;11.636;2022-07-29T14:50:36;27.15;48.59
64563;SHT31;50961;48.184;11.636;2022-07-29T14:53:02;27.18;48.65
64563;SHT31;50961;48.184;11.636;2022-07-29T14:55:28;27.20;48.72
64563;SHT31;50961;48.184;11.636;2022-07-29T14:57:53;27.12;48.37
64563;SHT31;50961;48.184;11.636;2022-07-29T15:00:19;27.10;48.40
64563;SHT31;50961;48.184;11.636;2022-07-29T15:02:46;27.06;48.32
64563;SHT31;50961;48.184;11.636;2022-07-29T15:05:11;26.96;48.83
64563;SHT31;50961;48.184;11.636;2022-07-29T15:07:37;26.94;48.62
64563;SHT31;50961;48.184;11.636;2022-07-29T15:10:02;26.89;49.35
64563;SHT31;50961;48.184;11.636;2022-07-29T15:12:29;26.90;49.40
64563;SHT31;50961;48.184;11.636;2022-07-29T15:14:55;26.87;49.46
64563;SHT31;50961;48.184;11.636;2022-07-29T15:17:21;26.84;49.52
64563;SHT31;50961;48.184;11.636;2022-07-29T15:19:46;26.83;49.94
64563;SHT31;50961;48.184;11.636;2022-07-29T15:22:11;26.66;50.57
64563;SHT31;50961;48.184;11.636;2022-07-29T15:24:37;26.75;50.34
64563;SHT31;50961;48.184;11.636;2022-07-29T15:27:02;26.68;50.36
64563;SHT31;50961;48.184;11.636;2022-07-29T15:29:28;26.53;51.00
64563;SHT31;50961;48.184;11.636;2022-07-29T15:31:53;26.53;51.14
64563;SHT31;50961;48.184;11.636;2022-07-29T15:34:19;26.46;51.57
64563;SHT31;50961;48.184;11.636;2022-07-29T15:36:46;26.45;52.18
64563;SHT31;50961;48.184;11.636;2022-07-29T15:39:11;26.39;53.59
64563;SHT31;50961;48.184;11.636;2022-07-29T15:41:37;26.31;54.36
64563;SHT31;50961;48.184;11.636;2022-07-29T15:44:02;26.13;54.73
64563;SHT31;50961;48.184;11.636;2022-07-29T15:46:28;26.22;55.24
64563;SHT31;50961;48.184;11.636;2022-07-29T15:49:11;26.15;55.55
64563;SHT31;50961;48.184;11.636;2022-07-29T15:51:37;26.05;56.47
64563;SHT31;50961;48.184;11.636;2022-07-29T15:54:03;26.06;56.57
64563;SHT31;50961;48.184;11.636;2022-07-29T15:56:30;25.94;56.62
64563;SHT31;50961;48.184;11.636;2022-07-29T15:58:55;25.76;56.93
64563;SHT31;50961;48.184;11.636;2022-07-29T16:01:21;25.77;56.84
64563;SHT31;50961;48.184;11.636;2022-07-29T16:03:47;25.60;57.35
64563;SHT31;50961;48.184;11.636;2022-07-29T16:06:13;25.59;57.44